Startpagina
METAR-TAF:

METAR-TAF

Vliegvelden :

Luchthaven Istanbul Atatürk

Istanbul Atatürk, Turkije

breedte: 40-58N, lengte: 028-49E, hoogte: 48 m

Actueel weer

Dit bericht is 40 minuten geleden gemaakt, om 19:20 UTC
Wind 8 kt uit het oostnoordoosten
Temperatuur 11°C
Vochtigheid 40%
Druk 1024 hPa
Zicht 10 km of meer
geen wolken onder 1500 m en geen cumulonimbus

METAR: LTBA 221920Z 06008KT CAVOK 11/M02 Q1024 NOSIG RMK RWY17L 07009KT RWY05 05009KT RWY23 07010KT

Tijdstip: 23:00 (20:00 UTC)

Verwachting

Dit bericht is 3 uur en het 20 minuten geleden gemaakt, om 16:40 UTC
Verwachting geldig van 22 om 18 UTC tot 23 om 24 UTC
Wind 9 kt uit het noordoosten
Zicht 10 km of meer
geen wolken onder 1500 m en geen cumulonimbus
Wijzigt naar
van 23 om 12 UTC tot 23 om 15 UTC
Verspreide wolken op 4000 ft
Gebroken wolken op 10000 ft

TAF: LTBA 221640Z 2218/2324 05009KT CAVOK BECMG 2312/2315 SCT040 BKN100

Waarnemingen en weersverwachtingen van meer dan 4000 vliegvelden (METAR en TAF).

De beschikbare stations zijn de gele en rode punten op de kaart.

Ga met uw muis naar het station om de naam te zien.

Klik dan om waarnemingen en weersverwachtingen te zien.

kaart wijzigen: klik op de groene knoppen met een zwart kruis om in te zoomen, op de groene knop met een streepje om uit te zoomen of op de groene pijlen voor aangrenzende kaarten.


METAR-TAF: